Airfield :
LOGIN :

Register | Disclaimer

   EN    FR    IT 

 










Legend :    VFR   Marginal VFR   IFR   Intensive IFR   Very Intensive IFR
Visi :
Ceiling :
>= 8 km
>= 3000ft
5 to 8 km
1000 to 3000 ft
1500m to 5 km
500 to 1000 ft
800 to 1500m
200 to 500 ft
< 800m
< 200 ft
Symbols :   Thunderstorms  Fog  Heavy snow  Heavy precipitations  Wind > 20 kt
SIGMETs :     Misc.  Thunderstorms  Icing  Turbulence  Mountain Waves  Volcanic Ashes






- Airport Elevation : 32 ft
- IATA code : LKZ


EGUL - RAF Lakenheath

CURRENT METAR :
  • 182031Z AUTO 20007KT 9999 BKN017 BKN025 OVC047 06/06 A2992 RMK AO2 CIG 017V048 SLP136 $

EXPIRED METARs :
  • 181956Z AUTO 19008KT 9999 OVC048 06/06 A2994 RMK AO2 SLP143 T00630063 $
  • 181856Z AUTO 21011KT 9999 SCT021 SCT055 OVC110 06/06 A2997 RMK AO2 SLP153 T00610061 $
  • 181756Z AUTO 22010KT 9999 OVC022 06/06 A3000 RMK AO2 SLP163 T00590059 10059 20050 57018 $

TAF TAF EGUL
Valid from the 18 at 16:00 until the 19 at 20:00 UTC


181627Z 1816/1920 22010G15KT 9999 BKN030 OVC050 620301 QNH2995INS
BECMG 1819/1820 21012G18KT 9000 -RA BKN010 OVC018 620459 QNH2991INS
BECMG 1820/1821 20018G28KT 8000 -RA BKN007 OVC010 620509 540003 QNH2977INS
BECMG 1823/1824 21020G35KT 6000 -RA OVC007 620559 550004 QNH2960INS
BECMG 1903/1904 24020G35KT 6000 -RA OVC007 620609 550004 QNH2959INS
BECMG 1906/1907 26020G35KT 9999 NSW SCT007 OVC015 620909 550004 QNH2957INS
BECMG 1912/1913 24020G35KT 9999 BKN020 BKN060 620602 550004 QNH2947INS
BECMG 1916/1917 22020G35KT 9000 -SHRA OVC015 550004 QNH2941INS TX11/1914Z TN05/1818Z LAST NO AMDS 1816 NEXT 1903



MET'MAP, your aeronautical weather chart ! - Copyright ORBIFLY December 2007 - Disclaimer

ORBIFLY MET'MAP TEAM :

Programming & Development : Alexandra Zaïnal
Concept & original design : Baudouin d'Aumeries
Assistance for programming : Marc-Olivier Méhu
Technical & hardware support : Manuel Goepfert

Contact : metmap@orbifly.com




SOURCES & CREDITS :

   NOAA